Time;durP1;ratioP1;P1;durP2;ratioP2;P2;SDS_P1;SDS_P2;PMS_P1;PMS_P2;Temp;Humidity;BMP_temperature;BMP_pressure;BME280_temperature;BME280_humidity;BME280_pressure;Samples;Min_cycle;Max_cycle;Signal;HPM_P1;HPM_P2
2023/12/15 00:01:54;;;;;;;;;;;;;;;;;;4943340;28;20021;-70
2023/12/15 00:04:22;;;;;;;;;;;;;;;;;;4929984;28;20004;-70
2023/12/15 00:06:47;;;;;;;;;;;;;;;;;;4926012;28;20437;-70
2023/12/15 00:09:12;;;;;;;;;;;;;;;;;;4946446;28;19919;-70
2023/12/15 00:11:41;;;;;;;;;;;;;;;;;;4944892;28;20529;-71
2023/12/15 00:14:06;;;;;;;;;;;;;;;;;;4943837;28;19960;-71
2023/12/15 00:16:34;;;;;;;;;;;;;;;;;;4929970;28;19919;-70
2023/12/15 00:19:00;;;;;;;;;;;;;;;;;;4943284;28;19918;-69
2023/12/15 00:21:28;;;;;;;;;;;;;;;;;;4930312;28;20392;-70
2023/12/15 00:23:53;;;;;;;;;;;;;;;;;;4944224;28;19930;-73
2023/12/15 00:26:18;;;;;;;;;;;;;;;;;;4930036;28;20206;-70
2023/12/15 00:28:46;;;;;;;;;;;;;;;;;;4941334;28;19926;-71
2023/12/15 00:31:14;;;;;;;;;;;;;;;;;;4932084;28;20818;-70
2023/12/15 00:33:49;;;;;;;;;;;;;;;;;;4929169;28;20620;-70
2023/12/15 00:36:15;;;;;;;;;;;;;;;;;;4942291;28;19927;-70
2023/12/15 00:38:42;;;;;;;;;;;;;;;;;;4930747;28;19919;-70
2023/12/15 00:41:08;;;;;;;;;;;;;;;;;;4943277;28;19945;-72
2023/12/15 00:43:35;;;;;;;;;;;;;;;;;;4939998;28;19981;-70
2023/12/15 00:46:01;;;;;;;;;;;;;;;;;;4929884;28;20374;-70
2023/12/15 00:51:24;;;;;;;;;;;;;;;;;;4932503;28;20369;-71
2023/12/15 00:53:49;;;;;;;;;;;;;;;;;;4942891;28;19930;-70
2023/12/15 00:56:15;;;;;;;;;;;;;;;;;;4931661;28;19919;-70
2023/12/15 00:58:40;;;;;;;;;;;;;;;;;;4931681;28;19946;-71
2023/12/15 01:01:08;;;;;;;;;;;;;;;;;;4944407;28;19926;-70
2023/12/15 01:03:33;;;;;;;;;;;;;;;;;;4932280;28;19919;-70
2023/12/15 01:05:59;;;;;;;;;;;;;;;;;;4945713;28;20038;-70
2023/12/15 01:08:27;;;;;;;;;;;;;;;;;;4929996;28;19969;-70
2023/12/15 01:10:52;;;;;;;;;;;;;;;;;;4942582;28;20398;-69
2023/12/15 01:13:19;;;;;;;;;;;;;;;;;;4932048;28;20122;-69
2023/12/15 01:15:44;;;;;;;;;;;;;;;;;;4931053;28;20278;-69
2023/12/15 01:18:10;;;;;;;;;;;;;;;;;;4946176;28;19981;-70
2023/12/15 01:20:36;;;;;;;;;;;;;;;;;;4935914;28;19930;-69
2023/12/15 01:23:01;;;;;;;;;;;;;;;;;;4931640;28;19993;-69
2023/12/15 01:25:26;;;;;;;;;;;;;;;;;;4950329;28;19918;-70
2023/12/15 01:27:52;;;;;;;;;;;;;;;;;;4942664;28;20001;-70
2023/12/15 01:30:17;;;;;;;;;;;;;;;;;;4946172;28;19934;-69
2023/12/15 01:32:42;;;;;;;;;;;;;;;;;;4933302;28;20005;-71
2023/12/15 01:35:08;;;;;;;;;;;;;;;;;;4947061;28;19922;-69
2023/12/15 01:37:35;;;;;;;;;;;;;;;;;;4948748;28;20043;-69
2023/12/15 01:40:03;;;;;;;;;;;;;;;;;;4948486;28;20394;-70
2023/12/15 01:42:28;;;;;;;;;;;;;;;;;;4947794;28;19926;-69
2023/12/15 01:44:54;;;;;;;;;;;;;;;;;;4928790;28;20609;-70
2023/12/15 01:47:21;;;;;;;;;;;;;;;;;;4944908;28;19969;-71
2023/12/15 01:49:46;;;;;;;;;;;;;;;;;;4933017;28;20370;-69
2023/12/15 01:52:12;;;;;;;;;;;;;;;;;;4947996;28;19938;-70
2023/12/15 01:54:37;;;;;;;;;;;;;;;;;;4949488;28;19926;-72
2023/12/15 01:57:02;;;;;;;;;;;;;;;;;;4932329;28;19993;-69
2023/12/15 01:59:28;;;;;;;;;;;;;;;;;;4928244;28;19933;-70
2023/12/15 02:01:55;;;;;;;;;;;;;;;;;;4949323;28;20305;-71
2023/12/15 02:04:21;;;;;;;;;;;;;;;;;;4931640;28;19923;-70
2023/12/15 02:06:46;;;;;;;;;;;;;;;;;;4947931;28;20009;-70
2023/12/15 02:09:14;;;;;;;;;;;;;;;;;;4932031;28;21237;-69
2023/12/15 02:11:39;;;;;;;;;;;;;;;;;;4934071;28;20520;-71
2023/12/15 02:14:05;;;;;;;;;;;;;;;;;;4945836;28;19968;-69
2023/12/15 02:16:30;;;;;;;;;;;;;;;;;;4944786;28;19922;-70
2023/12/15 02:18:55;;;;;;;;;;;;;;;;;;4947129;28;19942;-69
2023/12/15 02:21:21;;;;;;;;;;;;;;;;;;4947814;28;19923;-69
2023/12/15 02:23:46;;;;;;;;;;;;;;;;;;4932486;28;19928;-69
2023/12/15 02:26:11;;;;;;;;;;;;;;;;;;4933693;28;19937;-70
2023/12/15 02:28:39;;;;;;;;;;;;;;;;;;4935063;28;19934;-70
2023/12/15 02:31:04;;;;;;;;;;;;;;;;;;4946960;28;19950;-73
2023/12/15 02:33:39;;;;;;;;;;;;;;;;;;4933375;28;20020;-70
2023/12/15 02:36:07;;;;;;;;;;;;;;;;;;4930588;28;19918;-70
2023/12/15 02:38:32;;;;;;;;;;;;;;;;;;4947173;28;19918;-70
2023/12/15 02:41:00;;;;;;;;;;;;;;;;;;4930860;28;20715;-70
2023/12/15 02:46:42;;;;;;;;;;;;;;;;;;4932141;28;19969;-70
2023/12/15 02:52:24;;;;;;;;;;;;;;;;;;4933753;28;19933;-69
2023/12/15 02:54:49;;;;;;;;;;;;;;;;;;4945176;28;19926;-70
2023/12/15 02:57:15;;;;;;;;;;;;;;;;;;4946643;28;19923;-70
2023/12/15 02:59:41;;;;;;;;;;;;;;;;;;4945093;28;20043;-69
2023/12/15 03:02:06;;;;;;;;;;;;;;;;;;4945718;28;19923;-70
2023/12/15 03:04:32;;;;;;;;;;;;;;;;;;4930582;28;19937;-70
2023/12/15 03:07:00;;;;;;;;;;;;;;;;;;4945773;28;19976;-69
2023/12/15 03:09:28;;;;;;;;;;;;;;;;;;4930920;28;20575;-70
2023/12/15 03:11:54;;;;;;;;;;;;;;;;;;4931962;28;19977;-70
2023/12/15 03:14:21;;;;;;;;;;;;;;;;;;4932068;28;20594;-69
2023/12/15 03:16:46;;;;;;;;;;;;;;;;;;4940637;28;19923;-70
2023/12/15 03:19:12;;;;;;;;;;;;;;;;;;4932517;28;19937;-70
2023/12/15 03:21:37;;;;;;;;;;;;;;;;;;4945555;28;20017;-70
2023/12/15 03:24:03;;;;;;;;;;;;;;;;;;4930892;28;20382;-69
2023/12/15 03:26:28;;;;;;;;;;;;;;;;;;4943504;28;19918;-69
2023/12/15 03:28:54;;;;;;;;;;;;;;;;;;4926934;28;19932;-69
2023/12/15 03:31:19;;;;;;;;;;;;;;;;;;4930797;28;19930;-69
2023/12/15 03:33:44;;;;;;;;;;;;;;;;;;4942058;28;19927;-70
2023/12/15 03:36:10;;;;;;;;;;;;;;;;;;4930683;28;20844;-69
2023/12/15 03:38:35;;;;;;;;;;;;;;;;;;4931466;28;20342;-70
2023/12/15 03:41:00;;;;;;;;;;;;;;;;;;4930437;28;19942;-70
2023/12/15 03:43:26;;;;;;;;;;;;;;;;;;4944688;28;20379;-69
2023/12/15 03:45:51;;;;;;;;;;;;;;;;;;4930391;28;20352;-69
2023/12/15 03:48:16;;;;;;;;;;;;;;;;;;4931421;28;19966;-71
2023/12/15 03:50:42;;;;;;;;;;;;;;;;;;4946695;28;19950;-68
2023/12/15 03:53:07;;;;;;;;;;;;;;;;;;4944669;28;20033;-69
2023/12/15 03:55:35;;;;;;;;;;;;;;;;;;4944522;28;19930;-70
2023/12/15 03:58:01;;;;;;;;;;;;;;;;;;4930713;28;20278;-67
2023/12/15 04:00:28;;;;;;;;;;;;;;;;;;4931885;28;19922;-69
2023/12/15 04:02:54;;;;;;;;;;;;;;;;;;4941192;28;20227;-69
2023/12/15 04:05:19;;;;;;;;;;;;;;;;;;4931378;28;19930;-69
2023/12/15 04:07:44;;;;;;;;;;;;;;;;;;4930335;28;20547;-69
2023/12/15 04:10:10;;;;;;;;;;;;;;;;;;4945768;28;19925;-69
2023/12/15 04:12:35;;;;;;;;;;;;;;;;;;4944964;28;20289;-69
2023/12/15 04:15:00;;;;;;;;;;;;;;;;;;4929191;28;20107;-69
2023/12/15 04:17:26;;;;;;;;;;;;;;;;;;4947018;28;19965;-68
2023/12/15 04:19:52;;;;;;;;;;;;;;;;;;4944177;28;19922;-68
2023/12/15 04:22:18;;;;;;;;;;;;;;;;;;4932384;28;19919;-69
2023/12/15 04:24:44;;;;;;;;;;;;;;;;;;4926389;28;20082;-68
2023/12/15 04:27:09;;;;;;;;;;;;;;;;;;4944284;28;20642;-69
2023/12/15 04:29:34;;;;;;;;;;;;;;;;;;4928820;28;19930;-68
2023/12/15 04:32:00;;;;;;;;;;;;;;;;;;4946280;28;19974;-69
2023/12/15 04:34:29;;;;;;;;;;;;;;;;;;4931437;28;20232;-69
2023/12/15 04:36:54;;;;;;;;;;;;;;;;;;4939676;28;19922;-69
2023/12/15 04:39:19;;;;;;;;;;;;;;;;;;4944163;28;19922;-69
2023/12/15 04:41:44;;;;;;;;;;;;;;;;;;4929260;28;19933;-70
2023/12/15 04:44:10;;;;;;;;;;;;;;;;;;4931236;28;19930;-69
2023/12/15 04:46:36;;;;;;;;;;;;;;;;;;4941058;28;20455;-69
2023/12/15 04:52:18;;;;;;;;;;;;;;;;;;4930728;28;19970;-68
2023/12/15 04:54:44;;;;;;;;;;;;;;;;;;4944177;28;20289;-69
2023/12/15 04:57:09;;;;;;;;;;;;;;;;;;4945127;28;19923;-69
2023/12/15 04:59:39;;;;;;;;;;;;;;;;;;4929009;28;19930;-68
2023/12/15 05:02:05;;;;;;;;;;;;;;;;;;4945225;28;19937;-69
2023/12/15 05:04:30;;;;;;;;;;;;;;;;;;4931401;28;19918;-68
2023/12/15 05:06:55;;;;;;;;;;;;;;;;;;4929300;28;19929;-68
2023/12/15 05:09:20;;;;;;;;;;;;;;;;;;4943738;28;20520;-69
2023/12/15 05:11:48;;;;;;;;;;;;;;;;;;4929830;28;19923;-69
2023/12/15 05:14:13;;;;;;;;;;;;;;;;;;4945598;28;19933;-69
2023/12/15 05:16:39;;;;;;;;;;;;;;;;;;4931015;28;19961;-69
2023/12/15 05:19:07;;;;;;;;;;;;;;;;;;4928245;28;19930;-69
2023/12/15 05:21:32;;;;;;;;;;;;;;;;;;4946922;28;20417;-69
2023/12/15 05:23:58;;;;;;;;;;;;;;;;;;4944770;28;19919;-68
2023/12/15 05:26:24;;;;;;;;;;;;;;;;;;4931615;28;19933;-70
2023/12/15 05:28:52;;;;;;;;;;;;;;;;;;4941341;28;20519;-68
2023/12/15 05:31:17;;;;;;;;;;;;;;;;;;4929927;28;19918;-68
2023/12/15 05:33:45;;;;;;;;;;;;;;;;;;4943214;28;21846;-68
2023/12/15 05:36:10;;;;;;;;;;;;;;;;;;4942351;28;19925;-69
2023/12/15 05:38:35;;;;;;;;;;;;;;;;;;4922379;28;20317;-69
2023/12/15 05:41:01;;;;;;;;;;;;;;;;;;4929209;28;20319;-69
2023/12/15 05:43:26;;;;;;;;;;;;;;;;;;4943435;28;19919;-69
2023/12/15 05:45:51;;;;;;;;;;;;;;;;;;4945139;28;19972;-69
2023/12/15 05:48:19;;;;;;;;;;;;;;;;;;4944970;28;19958;-69
2023/12/15 05:50:44;;;;;;;;;;;;;;;;;;4930630;28;20014;-69
2023/12/15 05:53:09;;;;;;;;;;;;;;;;;;4943328;28;20530;-69
2023/12/15 05:55:35;;;;;;;;;;;;;;;;;;4945225;28;20009;-69
2023/12/15 05:58:00;;;;;;;;;;;;;;;;;;4928627;28;20255;-68
2023/12/15 06:00:26;;;;;;;;;;;;;;;;;;4945707;28;20335;-69
2023/12/15 06:02:53;;;;;;;;;;;;;;;;;;4943014;28;20568;-67
2023/12/15 06:05:21;;;;;;;;;;;;;;;;;;4931814;28;20381;-68
2023/12/15 06:07:46;;;;;;;;;;;;;;;;;;4933884;28;19922;-68
2023/12/15 06:10:12;;;;;;;;;;;;;;;;;;4931052;28;20043;-68
2023/12/15 06:12:37;;;;;;;;;;;;;;;;;;4947196;28;19941;-68
2023/12/15 06:15:02;;;;;;;;;;;;;;;;;;4946823;28;20366;-68
2023/12/15 06:17:28;;;;;;;;;;;;;;;;;;4949754;28;19942;-69
2023/12/15 06:19:56;;;;;;;;;;;;;;;;;;4947508;28;20370;-68
2023/12/15 06:22:21;;;;;;;;;;;;;;;;;;4948809;28;19923;-68
2023/12/15 06:24:46;;;;;;;;;;;;;;;;;;4948332;28;20454;-68
2023/12/15 06:27:14;;;;;;;;;;;;;;;;;;4947844;28;19949;-68
2023/12/15 06:29:40;;;;;;;;;;;;;;;;;;4932551;28;20768;-68
2023/12/15 06:32:06;;;;;;;;;;;;;;;;;;4945283;28;20353;-68
2023/12/15 06:34:31;;;;;;;;;;;;;;;;;;4947837;28;19926;-68
2023/12/15 06:36:56;;;;;;;;;;;;;;;;;;4944003;28;19923;-68
2023/12/15 06:39:24;;;;;;;;;;;;;;;;;;4944884;28;19929;-69
2023/12/15 06:41:53;;;;;;;;;;;;;;;;;;4946551;28;20484;-69
2023/12/15 06:44:18;;;;;;;;;;;;;;;;;;4945796;28;19918;-69
2023/12/15 06:46:44;;;;;;;;;;;;;;;;;;4933792;28;19919;-68
2023/12/15 06:49:12;;;;;;;;;;;;;;;;;;4932393;28;20021;-69
2023/12/15 06:54:56;;;;;;;;;;;;;;;;;;4931908;28;20354;-69
2023/12/15 06:57:24;;;;;;;;;;;;;;;;;;4947275;28;20247;-68
2023/12/15 06:59:51;;;;;;;;;;;;;;;;;;4944151;28;19922;-68
2023/12/15 07:02:17;;;;;;;;;;;;;;;;;;4948084;28;19949;-69
2023/12/15 07:04:42;;;;;;;;;;;;;;;;;;4924692;28;19922;-69
2023/12/15 07:07:07;;;;;;;;;;;;;;;;;;4933017;28;20470;-69
2023/12/15 07:09:33;;;;;;;;;;;;;;;;;;4946314;28;19923;-69
2023/12/15 07:12:02;;;;;;;;;;;;;;;;;;4948571;28;19918;-69
2023/12/15 07:14:28;;;;;;;;;;;;;;;;;;4945791;28;20248;-68
2023/12/15 07:16:53;;;;;;;;;;;;;;;;;;4945960;28;19950;-71
2023/12/15 07:19:18;;;;;;;;;;;;;;;;;;4933386;28;19930;-70
2023/12/15 07:21:46;;;;;;;;;;;;;;;;;;4933124;28;20093;-69
2023/12/15 07:24:14;;;;;;;;;;;;;;;;;;4946363;28;19922;-69
2023/12/15 07:26:40;;;;;;;;;;;;;;;;;;4944427;28;19929;-70
2023/12/15 07:29:05;;;;;;;;;;;;;;;;;;4944871;28;19926;-68
2023/12/15 07:31:34;;;;;;;;;;;;;;;;;;4947833;28;20086;-70
2023/12/15 07:33:59;;;;;;;;;;;;;;;;;;4930559;28;20017;-69
2023/12/15 07:36:24;;;;;;;;;;;;;;;;;;4932755;28;19922;-70
2023/12/15 07:38:49;;;;;;;;;;;;;;;;;;4948052;28;19923;-69
2023/12/15 07:41:19;;;;;;;;;;;;;;;;;;4944045;28;19993;-70
2023/12/15 07:43:45;;;;;;;;;;;;;;;;;;4926958;28;20920;-68
2023/12/15 07:46:10;;;;;;;;;;;;;;;;;;4945784;28;19973;-68
2023/12/15 07:48:35;;;;;;;;;;;;;;;;;;4944850;28;20559;-69
2023/12/15 07:51:01;;;;;;;;;;;;;;;;;;4946243;28;20302;-69
2023/12/15 07:53:27;;;;;;;;;;;;;;;;;;4946555;28;20416;-69
2023/12/15 07:55:52;;;;;;;;;;;;;;;;;;4932034;28;20009;-69
2023/12/15 07:58:19;;;;;;;;;;;;;;;;;;4930461;28;19919;-69
2023/12/15 08:00:44;;;;;;;;;;;;;;;;;;4944239;28;19915;-70
2023/12/15 08:03:10;;;;;;;;;;;;;;;;;;4943466;28;20603;-69
2023/12/15 08:05:35;;;;;;;;;;;;;;;;;;4928519;28;20238;-69
2023/12/15 08:08:00;;;;;;;;;;;;;;;;;;4941478;28;20149;-69
2023/12/15 08:10:29;;;;;;;;;;;;;;;;;;4943948;28;20001;-69
2023/12/15 08:12:54;;;;;;;;;;;;;;;;;;4928283;28;19966;-69
2023/12/15 08:15:22;;;;;;;;;;;;;;;;;;4938212;28;19940;-68
2023/12/15 08:17:47;;;;;;;;;;;;;;;;;;4942452;28;20406;-68
2023/12/15 08:20:13;;;;;;;;;;;;;;;;;;4930217;28;19922;-68
2023/12/15 08:22:41;;;;;;;;;;;;;;;;;;4930149;28;20575;-68
2023/12/15 08:25:06;;;;;;;;;;;;;;;;;;4942614;28;19925;-68
2023/12/15 08:27:31;;;;;;;;;;;;;;;;;;4942237;28;20427;-68
2023/12/15 08:30:00;;;;;;;;;;;;;;;;;;4942844;28;20054;-69
2023/12/15 08:32:25;;;;;;;;;;;;;;;;;;4942696;28;19930;-69
2023/12/15 08:34:51;;;;;;;;;;;;;;;;;;4941975;28;19926;-68
2023/12/15 08:37:19;;;;;;;;;;;;;;;;;;4942789;28;19926;-69
2023/12/15 08:39:44;;;;;;;;;;;;;;;;;;4944112;28;19923;-68
2023/12/15 08:42:09;;;;;;;;;;;;;;;;;;4942199;28;19918;-68
2023/12/15 08:44:35;;;;;;;;;;;;;;;;;;4938636;28;19919;-68
2023/12/15 08:50:16;;;;;;;;;;;;;;;;;;4928074;28;19997;-68
2023/12/15 08:52:44;;;;;;;;;;;;;;;;;;4929899;28;19931;-70
2023/12/15 08:55:12;;;;;;;;;;;;;;;;;;4941542;28;19925;-69
2023/12/15 08:57:37;;;;;;;;;;;;;;;;;;4928292;28;19918;-70
2023/12/15 09:00:04;;;;;;;;;;;;;;;;;;4941775;28;19918;-68
2023/12/15 09:02:29;;;;;;;;;;;;;;;;;;4943815;28;19919;-68
2023/12/15 09:08:12;;;;;;;;;;;;;;;;;;4929234;28;19965;-69
2023/12/15 09:10:43;;;;;;;;;;;;;;;;;;4944656;28;19919;-69
2023/12/15 09:13:08;;;;;;;;;;;;;;;;;;4940306;28;20025;-69
2023/12/15 09:15:37;;;;;;;;;;;;;;;;;;4931353;28;20541;-69
2023/12/15 09:18:05;;;;;;;;;;;;;;;;;;4941910;28;19922;-69
2023/12/15 09:20:30;;;;;;;;;;;;;;;;;;4929258;28;19918;-68
2023/12/15 09:22:55;;;;;;;;;;;;;;;;;;4944055;28;19950;-68
2023/12/15 09:25:23;;;;;;;;;;;;;;;;;;4920402;28;20029;-68
2023/12/15 09:27:48;;;;;;;;;;;;;;;;;;4938455;28;20293;-68
2023/12/15 09:30:14;;;;;;;;;;;;;;;;;;4926914;28;19918;-70
2023/12/15 09:32:44;;;;;;;;;;;;;;;;;;4929785;28;20445;-69
2023/12/15 09:35:17;;;;;;;;;;;;;;;;;;4944224;28;19952;-68
2023/12/15 09:37:42;;;;;;;;;;;;;;;;;;4940201;28;19932;-68
2023/12/15 09:40:10;;;;;;;;;;;;;;;;;;4945371;28;19919;-68
2023/12/15 09:42:38;;;;;;;;;;;;;;;;;;4925071;28;19929;-68
2023/12/15 09:45:04;;;;;;;;;;;;;;;;;;4947466;28;19922;-69
2023/12/15 09:47:29;;;;;;;;;;;;;;;;;;4946606;28;19927;-68
2023/12/15 09:53:16;;;;;;;;;;;;;;;;;;4933012;28;19928;-68
2023/12/15 09:55:44;;;;;;;;;;;;;;;;;;4934832;28;19947;-71
2023/12/15 09:58:12;;;;;;;;;;;;;;;;;;4929015;28;19922;-69
2023/12/15 10:00:40;;;;;;;;;;;;;;;;;;4935236;28;20646;-69
2023/12/15 10:03:08;;;;;;;;;;;;;;;;;;4933203;28;20006;-69
2023/12/15 10:05:33;;;;;;;;;;;;;;;;;;4948173;28;20027;-69
2023/12/15 10:08:01;;;;;;;;;;;;;;;;;;4932533;28;19994;-69
2023/12/15 10:10:26;;;;;;;;;;;;;;;;;;4947357;28;19977;-69
2023/12/15 10:12:52;;;;;;;;;;;;;;;;;;4934826;28;19927;-70
2023/12/15 10:15:19;;;;;;;;;;;;;;;;;;4944869;28;19993;-70
2023/12/15 10:17:46;;;;;;;;;;;;;;;;;;4945093;28;20012;-70
2023/12/15 10:20:14;;;;;;;;;;;;;;;;;;4947085;28;19922;-72
2023/12/15 10:22:42;;;;;;;;;;;;;;;;;;4931262;28;19977;-72
2023/12/15 10:25:10;;;;;;;;;;;;;;;;;;4945699;28;19982;-70
2023/12/15 10:27:35;;;;;;;;;;;;;;;;;;4947847;28;20306;-75
2023/12/15 10:30:01;;;;;;;;;;;;;;;;;;4944737;28;19925;-72
2023/12/15 10:32:26;;;;;;;;;;;;;;;;;;4932099;28;21247;-71
2023/12/15 10:34:52;;;;;;;;;;;;;;;;;;4944958;28;19922;-69
2023/12/15 10:37:20;;;;;;;;;;;;;;;;;;4930648;28;19919;-74
2023/12/15 10:39:46;;;;;;;;;;;;;;;;;;4933871;28;20381;-74
2023/12/15 10:42:17;;;;;;;;;;;;;;;;;;4929550;28;19922;-70
2023/12/15 10:44:43;;;;;;;;;;;;;;;;;;4945066;28;20555;-70
2023/12/15 10:50:25;;;;;;;;;;;;;;;;;;4929684;28;19952;-74
2023/12/15 10:52:51;;;;;;;;;;;;;;;;;;4944788;28;20484;-70
2023/12/15 10:55:19;;;;;;;;;;;;;;;;;;4944930;28;19918;-73
2023/12/15 10:57:44;;;;;;;;;;;;;;;;;;4934081;28;19919;-75
2023/12/15 11:00:10;;;;;;;;;;;;;;;;;;4932527;28;20371;-72
2023/12/15 11:02:36;;;;;;;;;;;;;;;;;;4932603;28;20480;-71
2023/12/15 11:05:01;;;;;;;;;;;;;;;;;;4934553;28;19933;-77
2023/12/15 11:07:41;;;;;;;;;;;;;;;;;;4931419;28;19926;-74
2023/12/15 11:10:12;;;;;;;;;;;;;;;;;;4930704;28;19977;-71
2023/12/15 11:12:38;;;;;;;;;;;;;;;;;;4931279;28;19918;-73
2023/12/15 11:15:03;;;;;;;;;;;;;;;;;;4929378;28;19929;-73
2023/12/15 11:17:28;;;;;;;;;;;;;;;;;;4945016;28;19923;-73
2023/12/15 11:19:56;;;;;;;;;;;;;;;;;;4932577;28;19922;-73
2023/12/15 11:22:24;;;;;;;;;;;;;;;;;;4931888;28;19965;-72
2023/12/15 11:24:49;;;;;;;;;;;;;;;;;;4943780;28;20393;-75
2023/12/15 11:27:15;;;;;;;;;;;;;;;;;;4942923;28;20397;-71
2023/12/15 11:29:42;;;;;;;;;;;;;;;;;;4944467;28;19968;-71
2023/12/15 11:32:10;;;;;;;;;;;;;;;;;;4945074;28;20025;-74
2023/12/15 11:34:35;;;;;;;;;;;;;;;;;;4931666;28;19933;-71
2023/12/15 11:37:01;;;;;;;;;;;;;;;;;;4945085;28;19926;-74
2023/12/15 11:39:28;;;;;;;;;;;;;;;;;;4946667;28;20008;-75
2023/12/15 11:41:53;;;;;;;;;;;;;;;;;;4932136;28;19918;-74
2023/12/15 11:44:19;;;;;;;;;;;;;;;;;;4940247;28;19997;-73
2023/12/15 11:46:48;;;;;;;;;;;;;;;;;;4930545;28;19926;-75
2023/12/15 11:49:15;;;;;;;;;;;;;;;;;;4944535;28;20850;-73
2023/12/15 11:51:41;;;;;;;;;;;;;;;;;;4944840;28;20019;-75
2023/12/15 11:54:06;;;;;;;;;;;;;;;;;;4939604;28;19918;-76
2023/12/15 11:56:31;;;;;;;;;;;;;;;;;;4946094;28;19965;-76
2023/12/15 11:58:57;;;;;;;;;;;;;;;;;;4930565;28;19922;-76
2023/12/15 12:01:22;;;;;;;;;;;;;;;;;;4930746;28;19922;-75
2023/12/15 12:03:47;;;;;;;;;;;;;;;;;;4927286;28;20393;-72
2023/12/15 12:06:13;;;;;;;;;;;;;;;;;;4945605;28;19929;-73
2023/12/15 12:08:39;;;;;;;;;;;;;;;;;;4947110;28;19945;-74
2023/12/15 12:11:05;;;;;;;;;;;;;;;;;;4944311;28;20000;-73
2023/12/15 12:13:32;;;;;;;;;;;;;;;;;;4929458;28;20369;-72
2023/12/15 12:15:58;;;;;;;;;;;;;;;;;;4930977;28;19930;-75
2023/12/15 12:18:23;;;;;;;;;;;;;;;;;;4931741;28;19918;-75
2023/12/15 12:20:49;;;;;;;;;;;;;;;;;;4948090;28;20438;-74
2023/12/15 12:23:20;;;;;;;;;;;;;;;;;;4940136;28;19922;-72
2023/12/15 12:25:47;;;;;;;;;;;;;;;;;;4942555;28;19961;-72
2023/12/15 12:28:13;;;;;;;;;;;;;;;;;;4930906;28;19989;-72
2023/12/15 12:30:38;;;;;;;;;;;;;;;;;;4944541;28;19926;-74
2023/12/15 12:33:03;;;;;;;;;;;;;;;;;;4928916;28;19925;-73
2023/12/15 12:35:29;;;;;;;;;;;;;;;;;;4941919;28;19993;-75
2023/12/15 12:37:54;;;;;;;;;;;;;;;;;;4945300;28;19925;-76
2023/12/15 12:40:19;;;;;;;;;;;;;;;;;;4946053;28;19922;-74
2023/12/15 12:42:45;;;;;;;;;;;;;;;;;;4923844;28;19930;-75
2023/12/15 12:45:11;;;;;;;;;;;;;;;;;;4943217;28;20484;-75
2023/12/15 12:47:38;;;;;;;;;;;;;;;;;;4945068;28;20069;-76
2023/12/15 12:50:06;;;;;;;;;;;;;;;;;;4944449;28;20017;-75
2023/12/15 12:52:31;;;;;;;;;;;;;;;;;;4954657;28;19969;-75
2023/12/15 12:54:56;;;;;;;;;;;;;;;;;;4961689;28;20017;-73
2023/12/15 12:57:25;;;;;;;;;;;;;;;;;;4929614;28;19930;-77
2023/12/15 12:59:50;;;;;;;;;;;;;;;;;;4942119;28;19923;-74
2023/12/15 13:02:15;;;;;;;;;;;;;;;;;;4928988;28;19922;-76
2023/12/15 13:04:41;;;;;;;;;;;;;;;;;;4946055;28;19929;-75
2023/12/15 13:07:06;;;;;;;;;;;;;;;;;;4931077;28;20017;-75
2023/12/15 13:09:32;;;;;;;;;;;;;;;;;;4930653;28;19918;-75
2023/12/15 13:11:57;;;;;;;;;;;;;;;;;;4945313;28;19922;-74
2023/12/15 13:14:22;;;;;;;;;;;;;;;;;;4941077;28;19923;-75
2023/12/15 13:16:48;;;;;;;;;;;;;;;;;;4950261;28;20515;-77
2023/12/15 13:19:13;;;;;;;;;;;;;;;;;;4946066;28;20650;-75
2023/12/15 13:21:38;;;;;;;;;;;;;;;;;;4949331;28;20153;-75
2023/12/15 13:24:04;;;;;;;;;;;;;;;;;;4946479;28;20374;-76
2023/12/15 13:29:46;;;;;;;;;;;;;;;;;;4930672;28;19933;-74
2023/12/15 13:32:13;;;;;;;;;;;;;;;;;;4935489;28;19923;-71
2023/12/15 13:34:38;;;;;;;;;;;;;;;;;;4943739;28;19930;-76
2023/12/15 13:37:04;;;;;;;;;;;;;;;;;;4934357;28;19986;-75
2023/12/15 13:39:29;;;;;;;;;;;;;;;;;;4947849;28;20041;-72
2023/12/15 13:41:54;;;;;;;;;;;;;;;;;;4947851;28;19924;-73
2023/12/15 13:44:20;;;;;;;;;;;;;;;;;;4932927;28;19926;-75
2023/12/15 13:46:45;;;;;;;;;;;;;;;;;;4947826;28;19918;-74
2023/12/15 13:49:15;;;;;;;;;;;;;;;;;;4946436;28;20572;-75
2023/12/15 13:51:41;;;;;;;;;;;;;;;;;;4949030;28;19918;-76
2023/12/15 13:54:06;;;;;;;;;;;;;;;;;;4930036;28;20017;-74
2023/12/15 13:56:32;;;;;;;;;;;;;;;;;;4946276;28;19932;-75
2023/12/15 13:58:57;;;;;;;;;;;;;;;;;;4947597;28;20438;-76
2023/12/15 14:01:23;;;;;;;;;;;;;;;;;;4947146;28;20313;-75
2023/12/15 14:03:48;;;;;;;;;;;;;;;;;;4944438;28;19922;-76
2023/12/15 14:06:13;;;;;;;;;;;;;;;;;;4932541;28;19918;-77
2023/12/15 14:08:39;;;;;;;;;;;;;;;;;;4948545;28;19923;-76
2023/12/15 14:11:05;;;;;;;;;;;;;;;;;;4935412;28;19922;-74
2023/12/15 14:13:30;;;;;;;;;;;;;;;;;;4946601;28;19918;-73
2023/12/15 14:15:55;;;;;;;;;;;;;;;;;;4948063;28;20353;-74
2023/12/15 14:18:20;;;;;;;;;;;;;;;;;;4945651;28;19915;-73
2023/12/15 14:20:46;;;;;;;;;;;;;;;;;;4935160;28;19922;-74
2023/12/15 14:23:12;;;;;;;;;;;;;;;;;;4947476;28;19926;-74
2023/12/15 14:25:37;;;;;;;;;;;;;;;;;;4947960;28;19915;-74
2023/12/15 14:28:02;;;;;;;;;;;;;;;;;;4932276;28;20441;-75
2023/12/15 14:30:28;;;;;;;;;;;;;;;;;;4945819;28;19922;-74
2023/12/15 14:32:53;;;;;;;;;;;;;;;;;;4946638;28;19919;-74
2023/12/15 14:35:19;;;;;;;;;;;;;;;;;;4933646;28;21505;-75
2023/12/15 14:37:45;;;;;;;;;;;;;;;;;;4947106;28;19922;-76
2023/12/15 14:40:12;;;;;;;;;;;;;;;;;;4932934;28;19923;-74
2023/12/15 14:42:38;;;;;;;;;;;;;;;;;;4946523;28;19925;-74
2023/12/15 14:45:03;;;;;;;;;;;;;;;;;;4945511;28;19934;-74
2023/12/15 14:47:28;;;;;;;;;;;;;;;;;;4945202;28;20465;-73
2023/12/15 14:50:05;;;;;;;;;;;;;;;;;;4942906;28;19981;-73
2023/12/15 14:52:54;;;;;;;;;;;;;;;;;;4912056;29;19950;-73
2023/12/15 14:55:19;;;;;;;;;;;;;;;;;;4924274;28;20425;-72
2023/12/15 14:57:45;;;;;;;;;;;;;;;;;;4924369;28;20331;-73
2023/12/15 15:00:11;;;;;;;;;;;;;;;;;;4924964;28;19919;-73
2023/12/15 15:02:37;;;;;;;;;;;;;;;;;;4922524;28;19919;-73
2023/12/15 15:05:04;;;;;;;;;;;;;;;;;;4910992;29;20378;-73
2023/12/15 15:07:29;;;;;;;;;;;;;;;;;;4913123;29;19942;-73
2023/12/15 15:09:55;;;;;;;;;;;;;;;;;;4925007;28;19923;-73
2023/12/15 15:12:21;;;;;;;;;;;;;;;;;;4926582;28;25835;-74
2023/12/15 15:14:47;;;;;;;;;;;;;;;;;;4922831;28;19958;-72
2023/12/15 15:17:12;;;;;;;;;;;;;;;;;;4915086;29;20009;-72
2023/12/15 15:19:37;;;;;;;;;;;;;;;;;;4919871;29;19922;-73
2023/12/15 15:22:03;;;;;;;;;;;;;;;;;;4927440;28;20021;-72
2023/12/15 15:24:28;;;;;;;;;;;;;;;;;;4913111;29;20342;-72
2023/12/15 15:26:54;;;;;;;;;;;;;;;;;;4927439;28;20378;-72
2023/12/15 15:29:19;;;;;;;;;;;;;;;;;;4921901;28;19927;-72
2023/12/15 15:31:45;;;;;;;;;;;;;;;;;;4925453;28;19931;-72
2023/12/15 15:34:11;;;;;;;;;;;;;;;;;;4926930;28;20633;-72
2023/12/15 15:36:36;;;;;;;;;;;;;;;;;;4926324;28;19919;-74
2023/12/15 15:39:02;;;;;;;;;;;;;;;;;;4926340;28;19922;-72
2023/12/15 15:41:34;;;;;;;;;;;;;;;;;;4913568;29;19958;-73
2023/12/15 15:44:02;;;;;;;;;;;;;;;;;;4911649;29;20049;-74
2023/12/15 15:46:28;;;;;;;;;;;;;;;;;;4908164;29;19935;-73
2023/12/15 15:48:54;;;;;;;;;;;;;;;;;;4905048;29;20328;-72
2023/12/15 15:51:22;;;;;;;;;;;;;;;;;;4926118;28;20030;-72
2023/12/15 15:53:48;;;;;;;;;;;;;;;;;;4923407;28;20280;-73
2023/12/15 15:56:14;;;;;;;;;;;;;;;;;;4905463;28;19918;-72
2023/12/15 15:58:39;;;;;;;;;;;;;;;;;;4924068;28;20031;-74
2023/12/15 16:01:04;;;;;;;;;;;;;;;;;;4924602;28;19978;-73
2023/12/15 16:03:30;;;;;;;;;;;;;;;;;;4926098;28;20275;-72
2023/12/15 16:05:55;;;;;;;;;;;;;;;;;;4925276;28;19969;-71
2023/12/15 16:08:20;;;;;;;;;;;;;;;;;;4923253;28;20022;-71
2023/12/15 16:10:46;;;;;;;;;;;;;;;;;;4911167;29;19967;-76
2023/12/15 16:13:11;;;;;;;;;;;;;;;;;;4922432;28;20240;-72
2023/12/15 16:15:39;;;;;;;;;;;;;;;;;;4910696;29;19982;-72
2023/12/15 16:18:07;;;;;;;;;;;;;;;;;;4924747;28;19919;-73
2023/12/15 16:20:35;;;;;;;;;;;;;;;;;;4911679;29;19933;-72
2023/12/15 16:23:01;;;;;;;;;;;;;;;;;;4912769;28;19919;-71
2023/12/15 16:25:26;;;;;;;;;;;;;;;;;;4927389;28;20536;-71
2023/12/15 16:27:52;;;;;;;;;;;;;;;;;;4909945;29;20555;-72
2023/12/15 16:30:17;;;;;;;;;;;;;;;;;;4909670;29;20362;-71
2023/12/15 16:32:43;;;;;;;;;;;;;;;;;;4910532;29;20009;-73
2023/12/15 16:35:08;;;;;;;;;;;;;;;;;;4923852;28;19926;-71
2023/12/15 16:37:34;;;;;;;;;;;;;;;;;;4925285;28;19929;-75
2023/12/15 16:39:59;;;;;;;;;;;;;;;;;;4923104;28;19926;-74
2023/12/15 16:42:25;;;;;;;;;;;;;;;;;;4925595;28;19919;-71
2023/12/15 16:44:50;;;;;;;;;;;;;;;;;;4921697;28;20303;-71
2023/12/15 16:47:16;;;;;;;;;;;;;;;;;;4910523;28;20013;-72
2023/12/15 16:49:44;;;;;;;;;;;;;;;;;;4924702;28;19929;-72
2023/12/15 16:52:10;;;;;;;;;;;;;;;;;;4924886;28;19930;-73
2023/12/15 16:54:35;;;;;;;;;;;;;;;;;;4926849;28;19923;-72
2023/12/15 16:57:00;;;;;;;;;;;;;;;;;;4907652;29;19919;-72
2023/12/15 16:59:25;;;;;;;;;;;;;;;;;;4910480;29;20335;-71
2023/12/15 17:01:51;;;;;;;;;;;;;;;;;;4922020;28;19927;-72
2023/12/15 17:04:16;;;;;;;;;;;;;;;;;;4924960;28;19919;-72
2023/12/15 17:06:42;;;;;;;;;;;;;;;;;;4923631;28;19926;-72
2023/12/15 17:09:08;;;;;;;;;;;;;;;;;;4925246;28;20006;-71
2023/12/15 17:11:33;;;;;;;;;;;;;;;;;;4923964;28;19922;-71